sensor_id;sensor_type;location;lat;lon;timestamp;temperature;humidity
69715;HTU21D;56981;53.532;49.398;2023-01-19T00:01:37;-10.97;69.87
69715;HTU21D;56981;53.532;49.398;2023-01-19T00:04:03;-10.93;69.72
69715;HTU21D;56981;53.532;49.398;2023-01-19T00:06:29;-10.90;69.55
69715;HTU21D;56981;53.532;49.398;2023-01-19T00:08:56;-10.91;69.68
69715;HTU21D;56981;53.532;49.398;2023-01-19T00:11:22;-10.88;69.62
69715;HTU21D;56981;53.532;49.398;2023-01-19T00:13:48;-10.87;69.79
69715;HTU21D;56981;53.532;49.398;2023-01-19T00:16:19;-10.88;69.74
69715;HTU21D;56981;53.532;49.398;2023-01-19T00:18:49;-10.87;69.90
69715;HTU21D;56981;53.532;49.398;2023-01-19T00:21:15;-10.86;70.24
69715;HTU21D;56981;53.532;49.398;2023-01-19T00:23:42;-10.82;69.88
69715;HTU21D;56981;53.532;49.398;2023-01-19T00:26:13;-10.84;70.61
69715;HTU21D;56981;53.532;49.398;2023-01-19T00:28:44;-10.82;70.36
69715;HTU21D;56981;53.532;49.398;2023-01-19T00:31:10;-10.81;69.80
69715;HTU21D;56981;53.532;49.398;2023-01-19T00:33:36;-10.79;69.88
69715;HTU21D;56981;53.532;49.398;2023-01-19T00:36:03;-10.77;69.76
69715;HTU21D;56981;53.532;49.398;2023-01-19T00:38:29;-10.77;70.06
69715;HTU21D;56981;53.532;49.398;2023-01-19T00:40:55;-10.77;70.30
69715;HTU21D;56981;53.532;49.398;2023-01-19T00:43:21;-10.77;70.12
69715;HTU21D;56981;53.532;49.398;2023-01-19T00:45:47;-10.76;70.35
69715;HTU21D;56981;53.532;49.398;2023-01-19T00:48:13;-10.77;70.06
69715;HTU21D;56981;53.532;49.398;2023-01-19T00:50:39;-10.76;70.16
69715;HTU21D;56981;53.532;49.398;2023-01-19T00:53:05;-10.77;70.09
69715;HTU21D;56981;53.532;49.398;2023-01-19T00:55:31;-10.76;69.87
69715;HTU21D;56981;53.532;49.398;2023-01-19T00:58:00;-10.77;70.26
69715;HTU21D;56981;53.532;49.398;2023-01-19T01:00:27;-10.78;70.16
69715;HTU21D;56981;53.532;49.398;2023-01-19T01:02:53;-10.77;70.36
69715;HTU21D;56981;53.532;49.398;2023-01-19T01:05:19;-10.74;70.04
69715;HTU21D;56981;53.532;49.398;2023-01-19T01:07:47;-10.74;70.19
69715;HTU21D;56981;53.532;49.398;2023-01-19T01:10:23;-10.74;70.86
69715;HTU21D;56981;53.532;49.398;2023-01-19T01:12:49;-10.74;70.62
69715;HTU21D;56981;53.532;49.398;2023-01-19T01:15:16;-10.76;70.65
69715;HTU21D;56981;53.532;49.398;2023-01-19T01:17:43;-10.78;70.49
69715;HTU21D;56981;53.532;49.398;2023-01-19T01:20:18;-10.76;70.62
69715;HTU21D;56981;53.532;49.398;2023-01-19T01:22:47;-10.77;70.64
69715;HTU21D;56981;53.532;49.398;2023-01-19T01:25:15;-10.76;70.67
69715;HTU21D;56981;53.532;49.398;2023-01-19T01:27:42;-10.77;70.64
69715;HTU21D;56981;53.532;49.398;2023-01-19T01:30:10;-10.78;70.84
69715;HTU21D;56981;53.532;49.398;2023-01-19T01:32:36;-10.79;70.78
69715;HTU21D;56981;53.532;49.398;2023-01-19T01:35:03;-10.76;70.95
69715;HTU21D;56981;53.532;49.398;2023-01-19T01:37:29;-10.77;70.85
69715;HTU21D;56981;53.532;49.398;2023-01-19T01:39:55;-10.78;70.70
69715;HTU21D;56981;53.532;49.398;2023-01-19T01:42:27;-10.76;71.12
69715;HTU21D;56981;53.532;49.398;2023-01-19T01:44:56;-10.82;70.74
69715;HTU21D;56981;53.532;49.398;2023-01-19T01:50:16;-10.80;71.00
69715;HTU21D;56981;53.532;49.398;2023-01-19T01:55:16;-10.81;70.92
69715;HTU21D;56981;53.532;49.398;2023-01-19T01:57:48;-10.80;70.97
69715;HTU21D;56981;53.532;49.398;2023-01-19T02:00:15;-10.78;71.03
69715;HTU21D;56981;53.532;49.398;2023-01-19T02:02:41;-10.74;71.16
69715;HTU21D;56981;53.532;49.398;2023-01-19T02:05:29;-10.76;71.47
69715;HTU21D;56981;53.532;49.398;2023-01-19T02:08:16;-10.79;71.48
69715;HTU21D;56981;53.532;49.398;2023-01-19T02:11:02;-10.79;71.67
69715;HTU21D;56981;53.532;49.398;2023-01-19T02:13:47;-10.76;72.23
69715;HTU21D;56981;53.532;49.398;2023-01-19T02:16:15;-10.77;71.82
69715;HTU21D;56981;53.532;49.398;2023-01-19T02:18:42;-10.81;71.95
69715;HTU21D;56981;53.532;49.398;2023-01-19T02:24:00;-10.86;72.06
69715;HTU21D;56981;53.532;49.398;2023-01-19T02:29:01;-10.91;72.48
69715;HTU21D;56981;53.532;49.398;2023-01-19T02:31:29;-10.95;72.23
69715;HTU21D;56981;53.532;49.398;2023-01-19T02:33:56;-10.94;72.25
69715;HTU21D;56981;53.532;49.398;2023-01-19T02:36:26;-10.92;72.32
69715;HTU21D;56981;53.532;49.398;2023-01-19T02:38:55;-11.00;72.45
69715;HTU21D;56981;53.532;49.398;2023-01-19T02:41:25;-11.00;72.80
69715;HTU21D;56981;53.532;49.398;2023-01-19T02:43:55;-11.02;72.44
69715;HTU21D;56981;53.532;49.398;2023-01-19T02:46:21;-11.00;72.45
69715;HTU21D;56981;53.532;49.398;2023-01-19T02:48:47;-11.01;72.56
69715;HTU21D;56981;53.532;49.398;2023-01-19T02:51:15;-11.03;72.29
69715;HTU21D;56981;53.532;49.398;2023-01-19T02:53:52;-11.04;72.27
69715;HTU21D;56981;53.532;49.398;2023-01-19T02:59:12;-10.97;72.54
69715;HTU21D;56981;53.532;49.398;2023-01-19T03:01:48;-10.99;72.41
69715;HTU21D;56981;53.532;49.398;2023-01-19T03:06:56;-10.90;72.08
69715;HTU21D;56981;53.532;49.398;2023-01-19T03:09:47;-10.85;72.16
69715;HTU21D;56981;53.532;49.398;2023-01-19T03:12:23;-10.85;72.52
69715;HTU21D;56981;53.532;49.398;2023-01-19T03:14:52;-10.82;72.10
69715;HTU21D;56981;53.532;49.398;2023-01-19T03:17:21;-10.79;72.43
69715;HTU21D;56981;53.532;49.398;2023-01-19T03:19:48;-10.76;71.93
69715;HTU21D;56981;53.532;49.398;2023-01-19T03:22:24;-10.78;72.24
69715;HTU21D;56981;53.532;49.398;2023-01-19T03:24:54;-10.75;72.23
69715;HTU21D;56981;53.532;49.398;2023-01-19T03:27:31;-10.72;72.19
69715;HTU21D;56981;53.532;49.398;2023-01-19T03:30:03;-10.68;71.84
69715;HTU21D;56981;53.532;49.398;2023-01-19T03:32:34;-10.66;72.17
69715;HTU21D;56981;53.532;49.398;2023-01-19T03:35:04;-10.64;71.90
69715;HTU21D;56981;53.532;49.398;2023-01-19T03:37:33;-10.63;71.90
69715;HTU21D;56981;53.532;49.398;2023-01-19T03:40:02;-10.61;71.80
69715;HTU21D;56981;53.532;49.398;2023-01-19T03:42:28;-10.59;71.66
69715;HTU21D;56981;53.532;49.398;2023-01-19T03:44:55;-10.60;71.79
69715;HTU21D;56981;53.532;49.398;2023-01-19T03:47:22;-10.58;71.98
69715;HTU21D;56981;53.532;49.398;2023-01-19T03:49:51;-10.58;72.01
69715;HTU21D;56981;53.532;49.398;2023-01-19T03:52:30;-10.61;72.14
69715;HTU21D;56981;53.532;49.398;2023-01-19T03:55:01;-10.58;72.30
69715;HTU21D;56981;53.532;49.398;2023-01-19T03:57:29;-10.58;72.05
69715;HTU21D;56981;53.532;49.398;2023-01-19T03:59:55;-10.57;72.03
69715;HTU21D;56981;53.532;49.398;2023-01-19T04:02:22;-10.55;72.02
69715;HTU21D;56981;53.532;49.398;2023-01-19T04:04:48;-10.58;72.32
69715;HTU21D;56981;53.532;49.398;2023-01-19T04:07:14;-10.55;72.00
69715;HTU21D;56981;53.532;49.398;2023-01-19T04:09:41;-10.52;72.08
69715;HTU21D;56981;53.532;49.398;2023-01-19T04:12:07;-10.50;71.84
69715;HTU21D;56981;53.532;49.398;2023-01-19T04:14:33;-10.48;71.65
69715;HTU21D;56981;53.532;49.398;2023-01-19T04:16:59;-10.44;71.57
69715;HTU21D;56981;53.532;49.398;2023-01-19T04:19:25;-10.45;71.22
69715;HTU21D;56981;53.532;49.398;2023-01-19T04:21:51;-10.43;71.32
69715;HTU21D;56981;53.532;49.398;2023-01-19T04:24:17;-10.40;71.30
69715;HTU21D;56981;53.532;49.398;2023-01-19T04:26:43;-10.35;71.37
69715;HTU21D;56981;53.532;49.398;2023-01-19T04:29:09;-10.32;70.93
69715;HTU21D;56981;53.532;49.398;2023-01-19T04:31:35;-10.28;70.69
69715;HTU21D;56981;53.532;49.398;2023-01-19T04:34:02;-10.28;70.68
69715;HTU21D;56981;53.532;49.398;2023-01-19T04:36:28;-10.27;70.59
69715;HTU21D;56981;53.532;49.398;2023-01-19T04:38:54;-10.25;70.42
69715;HTU21D;56981;53.532;49.398;2023-01-19T04:41:20;-10.21;70.24
69715;HTU21D;56981;53.532;49.398;2023-01-19T04:43:46;-10.21;70.19
69715;HTU21D;56981;53.532;49.398;2023-01-19T04:46:13;-10.18;70.29
69715;HTU21D;56981;53.532;49.398;2023-01-19T04:48:39;-10.17;70.03
69715;HTU21D;56981;53.532;49.398;2023-01-19T04:51:05;-10.18;69.77
69715;HTU21D;56981;53.532;49.398;2023-01-19T04:53:31;-10.13;69.53
69715;HTU21D;56981;53.532;49.398;2023-01-19T04:55:57;-10.11;69.64
69715;HTU21D;56981;53.532;49.398;2023-01-19T04:58:24;-10.12;69.79
69715;HTU21D;56981;53.532;49.398;2023-01-19T05:00:50;-10.07;69.50
69715;HTU21D;56981;53.532;49.398;2023-01-19T05:03:18;-10.06;68.84
69715;HTU21D;56981;53.532;49.398;2023-01-19T05:05:45;-10.03;68.76
69715;HTU21D;56981;53.532;49.398;2023-01-19T05:08:11;-9.99;68.45
69715;HTU21D;56981;53.532;49.398;2023-01-19T05:10:37;-9.90;67.92
69715;HTU21D;56981;53.532;49.398;2023-01-19T05:13:03;-9.84;67.57
69715;HTU21D;56981;53.532;49.398;2023-01-19T05:15:30;-9.83;67.13
69715;HTU21D;56981;53.532;49.398;2023-01-19T05:17:56;-9.64;66.91
69715;HTU21D;56981;53.532;49.398;2023-01-19T05:20:23;-8.98;65.08
69715;HTU21D;56981;53.532;49.398;2023-01-19T05:22:50;-7.74;60.73
69715;HTU21D;56981;53.532;49.398;2023-01-19T05:25:17;-6.62;56.79
69715;HTU21D;56981;53.532;49.398;2023-01-19T05:27:44;-5.58;53.56
69715;HTU21D;56981;53.532;49.398;2023-01-19T05:30:11;-4.57;50.27
69715;HTU21D;56981;53.532;49.398;2023-01-19T05:32:37;-4.22;48.30
69715;HTU21D;56981;53.532;49.398;2023-01-19T05:35:04;-4.27;47.79
69715;HTU21D;56981;53.532;49.398;2023-01-19T05:37:30;-4.38;48.18
69715;HTU21D;56981;53.532;49.398;2023-01-19T05:39:57;-4.63;48.56
69715;HTU21D;56981;53.532;49.398;2023-01-19T05:42:23;-4.96;49.31
69715;HTU21D;56981;53.532;49.398;2023-01-19T05:44:49;-4.40;48.80
69715;HTU21D;56981;53.532;49.398;2023-01-19T05:47:15;-3.58;46.39
69715;HTU21D;56981;53.532;49.398;2023-01-19T05:49:41;-2.90;44.30
69715;HTU21D;56981;53.532;49.398;2023-01-19T05:52:07;-2.72;43.29
69715;HTU21D;56981;53.532;49.398;2023-01-19T05:54:33;-2.34;41.68
69715;HTU21D;56981;53.532;49.398;2023-01-19T05:56:59;-1.79;40.96
69715;HTU21D;56981;53.532;49.398;2023-01-19T05:59:26;-1.65;39.52
69715;HTU21D;56981;53.532;49.398;2023-01-19T06:01:52;-1.24;38.73
69715;HTU21D;56981;53.532;49.398;2023-01-19T06:04:19;-1.27;38.38
69715;HTU21D;56981;53.532;49.398;2023-01-19T06:06:49;-1.25;38.01
69715;HTU21D;56981;53.532;49.398;2023-01-19T06:09:15;-0.87;37.68
69715;HTU21D;56981;53.532;49.398;2023-01-19T06:11:43;-0.62;37.49
69715;HTU21D;56981;53.532;49.398;2023-01-19T06:14:10;-0.02;36.42
69715;HTU21D;56981;53.532;49.398;2023-01-19T06:16:36;-0.24;36.52
69715;HTU21D;56981;53.532;49.398;2023-01-19T06:19:02;-0.26;36.42
69715;HTU21D;56981;53.532;49.398;2023-01-19T06:21:28;-0.52;36.40
69715;HTU21D;56981;53.532;49.398;2023-01-19T06:23:54;-0.42;36.50
69715;HTU21D;56981;53.532;49.398;2023-01-19T06:26:20;-1.13;38.00
69715;HTU21D;56981;53.532;49.398;2023-01-19T06:28:46;-1.33;38.33
69715;HTU21D;56981;53.532;49.398;2023-01-19T06:31:13;-1.53;39.03
69715;HTU21D;56981;53.532;49.398;2023-01-19T06:33:39;-1.92;40.38
69715;HTU21D;56981;53.532;49.398;2023-01-19T06:36:05;-1.65;39.65
69715;HTU21D;56981;53.532;49.398;2023-01-19T06:38:31;-1.61;40.18
69715;HTU21D;56981;53.532;49.398;2023-01-19T06:40:57;-1.25;38.74
69715;HTU21D;56981;53.532;49.398;2023-01-19T06:43:24;-1.84;40.01
69715;HTU21D;56981;53.532;49.398;2023-01-19T06:45:51;-2.43;41.62
69715;HTU21D;56981;53.532;49.398;2023-01-19T06:48:17;-2.61;43.84
69715;HTU21D;56981;53.532;49.398;2023-01-19T06:50:45;-2.18;41.47
69715;HTU21D;56981;53.532;49.398;2023-01-19T06:53:11;-1.87;41.25
69715;HTU21D;56981;53.532;49.398;2023-01-19T06:55:37;-1.26;38.61
69715;HTU21D;56981;53.532;49.398;2023-01-19T06:58:04;-1.18;39.72
69715;HTU21D;56981;53.532;49.398;2023-01-19T07:00:31;-0.66;38.49
69715;HTU21D;56981;53.532;49.398;2023-01-19T07:02:57;-0.26;36.89
69715;HTU21D;56981;53.532;49.398;2023-01-19T07:05:23;-0.47;37.85
69715;HTU21D;56981;53.532;49.398;2023-01-19T07:07:56;-1.15;40.36
69715;HTU21D;56981;53.532;49.398;2023-01-19T07:10:23;-1.26;40.22
69715;HTU21D;56981;53.532;49.398;2023-01-19T07:12:49;-1.36;41.07
69715;HTU21D;56981;53.532;49.398;2023-01-19T07:15:16;-1.27;39.58
69715;HTU21D;56981;53.532;49.398;2023-01-19T07:17:44;-1.53;40.82
69715;HTU21D;56981;53.532;49.398;2023-01-19T07:20:12;-1.89;42.19
69715;HTU21D;56981;53.532;49.398;2023-01-19T07:22:40;-1.94;41.66
69715;HTU21D;56981;53.532;49.398;2023-01-19T07:25:06;-2.15;42.10
69715;HTU21D;56981;53.532;49.398;2023-01-19T07:27:32;-2.22;42.37
69715;HTU21D;56981;53.532;49.398;2023-01-19T07:29:58;-2.14;42.88
69715;HTU21D;56981;53.532;49.398;2023-01-19T07:32:26;-2.29;43.19
69715;HTU21D;56981;53.532;49.398;2023-01-19T07:34:52;-2.64;43.26
69715;HTU21D;56981;53.532;49.398;2023-01-19T07:37:19;-2.64;43.48
69715;HTU21D;56981;53.532;49.398;2023-01-19T07:39:45;-2.76;44.27
69715;HTU21D;56981;53.532;49.398;2023-01-19T07:42:11;-2.94;45.26
69715;HTU21D;56981;53.532;49.398;2023-01-19T07:44:37;-3.19;45.15
69715;HTU21D;56981;53.532;49.398;2023-01-19T07:47:04;-3.25;45.89
69715;HTU21D;56981;53.532;49.398;2023-01-19T07:49:35;-3.23;47.76
69715;HTU21D;56981;53.532;49.398;2023-01-19T07:52:01;-3.43;46.83
69715;HTU21D;56981;53.532;49.398;2023-01-19T07:54:28;-3.41;47.57
69715;HTU21D;56981;53.532;49.398;2023-01-19T07:56:54;-3.62;48.89
69715;HTU21D;56981;53.532;49.398;2023-01-19T07:59:20;-3.76;47.71
69715;HTU21D;56981;53.532;49.398;2023-01-19T08:01:46;-3.66;47.25
69715;HTU21D;56981;53.532;49.398;2023-01-19T08:04:12;-3.53;48.21
69715;HTU21D;56981;53.532;49.398;2023-01-19T08:06:39;-3.71;46.21
69715;HTU21D;56981;53.532;49.398;2023-01-19T08:09:05;-3.80;46.94
69715;HTU21D;56981;53.532;49.398;2023-01-19T08:11:34;-3.85;47.21
69715;HTU21D;56981;53.532;49.398;2023-01-19T08:14:01;-3.77;46.63
69715;HTU21D;56981;53.532;49.398;2023-01-19T08:16:27;-3.72;47.05
69715;HTU21D;56981;53.532;49.398;2023-01-19T08:18:55;-3.74;46.14
69715;HTU21D;56981;53.532;49.398;2023-01-19T08:21:21;-3.67;45.86
69715;HTU21D;56981;53.532;49.398;2023-01-19T08:23:52;-3.54;45.22
69715;HTU21D;56981;53.532;49.398;2023-01-19T08:26:33;-3.49;45.70
69715;HTU21D;56981;53.532;49.398;2023-01-19T08:29:03;-3.42;45.01
69715;HTU21D;56981;53.532;49.398;2023-01-19T08:31:29;-3.36;46.67
69715;HTU21D;56981;53.532;49.398;2023-01-19T08:33:55;-3.34;47.05
69715;HTU21D;56981;53.532;49.398;2023-01-19T08:36:22;-3.12;45.64
69715;HTU21D;56981;53.532;49.398;2023-01-19T08:38:49;-2.72;42.97
69715;HTU21D;56981;53.532;49.398;2023-01-19T08:41:15;-2.61;41.74
69715;HTU21D;56981;53.532;49.398;2023-01-19T08:43:42;-2.67;43.39
69715;HTU21D;56981;53.532;49.398;2023-01-19T08:46:10;-2.48;42.00
69715;HTU21D;56981;53.532;49.398;2023-01-19T08:48:36;-2.38;42.16
69715;HTU21D;56981;53.532;49.398;2023-01-19T08:51:02;-2.51;41.64
69715;HTU21D;56981;53.532;49.398;2023-01-19T08:53:28;-2.58;41.45
69715;HTU21D;56981;53.532;49.398;2023-01-19T08:55:56;-2.69;42.14
69715;HTU21D;56981;53.532;49.398;2023-01-19T08:58:22;-2.82;42.46
69715;HTU21D;56981;53.532;49.398;2023-01-19T09:00:49;-2.98;43.15
69715;HTU21D;56981;53.532;49.398;2023-01-19T09:03:18;-3.08;44.09
69715;HTU21D;56981;53.532;49.398;2023-01-19T09:05:44;-3.08;42.55
69715;HTU21D;56981;53.532;49.398;2023-01-19T09:08:12;-3.08;44.91
69715;HTU21D;56981;53.532;49.398;2023-01-19T09:10:43;-3.26;44.08
69715;HTU21D;56981;53.532;49.398;2023-01-19T09:13:10;-3.33;44.87
69715;HTU21D;56981;53.532;49.398;2023-01-19T09:15:38;-3.32;44.03
69715;HTU21D;56981;53.532;49.398;2023-01-19T09:18:05;-3.36;44.09
69715;HTU21D;56981;53.532;49.398;2023-01-19T09:20:33;-3.40;42.15
69715;HTU21D;56981;53.532;49.398;2023-01-19T09:23:00;-3.34;42.85
69715;HTU21D;56981;53.532;49.398;2023-01-19T09:25:26;-3.31;43.75
69715;HTU21D;56981;53.532;49.398;2023-01-19T09:27:52;-3.46;42.19
69715;HTU21D;56981;53.532;49.398;2023-01-19T09:30:20;-3.51;41.58
69715;HTU21D;56981;53.532;49.398;2023-01-19T09:32:46;-3.55;41.72
69715;HTU21D;56981;53.532;49.398;2023-01-19T09:35:12;-3.66;43.60
69715;HTU21D;56981;53.532;49.398;2023-01-19T09:37:38;-3.60;42.97
69715;HTU21D;56981;53.532;49.398;2023-01-19T09:40:05;-3.53;42.00
69715;HTU21D;56981;53.532;49.398;2023-01-19T09:45:04;-3.34;42.90
69715;HTU21D;56981;53.532;49.398;2023-01-19T09:47:32;-3.30;44.35
69715;HTU21D;56981;53.532;49.398;2023-01-19T09:50:08;-3.39;43.84
69715;HTU21D;56981;53.532;49.398;2023-01-19T09:52:40;-3.34;42.22
69715;HTU21D;56981;53.532;49.398;2023-01-19T09:55:19;-3.31;43.47
69715;HTU21D;56981;53.532;49.398;2023-01-19T09:57:45;-3.32;42.04
69715;HTU21D;56981;53.532;49.398;2023-01-19T10:00:16;-3.27;43.12
69715;HTU21D;56981;53.532;49.398;2023-01-19T10:02:54;-3.32;43.29
69715;HTU21D;56981;53.532;49.398;2023-01-19T10:05:56;-3.41;43.17
69715;HTU21D;56981;53.532;49.398;2023-01-19T10:08:25;-3.34;41.87
69715;HTU21D;56981;53.532;49.398;2023-01-19T10:10:56;-3.30;41.44
69715;HTU21D;56981;53.532;49.398;2023-01-19T10:16:27;-3.35;42.43
69715;HTU21D;56981;53.532;49.398;2023-01-19T10:19:32;-3.33;41.42
69715;HTU21D;56981;53.532;49.398;2023-01-19T10:22:09;-3.31;42.03
69715;HTU21D;56981;53.532;49.398;2023-01-19T10:24:42;-3.34;40.88
69715;HTU21D;56981;53.532;49.398;2023-01-19T10:27:19;-3.33;41.98
69715;HTU21D;56981;53.532;49.398;2023-01-19T10:29:47;-3.36;44.19
69715;HTU21D;56981;53.532;49.398;2023-01-19T10:32:15;-3.37;43.41
69715;HTU21D;56981;53.532;49.398;2023-01-19T10:34:48;-3.35;43.22
69715;HTU21D;56981;53.532;49.398;2023-01-19T10:37:31;-3.34;42.27
69715;HTU21D;56981;53.532;49.398;2023-01-19T10:42:38;-3.35;41.19
69715;HTU21D;56981;53.532;49.398;2023-01-19T10:45:19;-3.35;41.45
69715;HTU21D;56981;53.532;49.398;2023-01-19T10:47:47;-3.38;41.08
69715;HTU21D;56981;53.532;49.398;2023-01-19T10:50:26;-3.36;42.19
69715;HTU21D;56981;53.532;49.398;2023-01-19T10:52:58;-3.38;40.55
69715;HTU21D;56981;53.532;49.398;2023-01-19T10:55:37;-3.46;42.60
69715;HTU21D;56981;53.532;49.398;2023-01-19T10:58:06;-3.47;42.71
69715;HTU21D;56981;53.532;49.398;2023-01-19T11:00:50;-3.51;41.34
69715;HTU21D;56981;53.532;49.398;2023-01-19T11:03:30;-3.49;39.78
69715;HTU21D;56981;53.532;49.398;2023-01-19T11:08:41;-3.49;40.55
69715;HTU21D;56981;53.532;49.398;2023-01-19T11:11:08;-3.50;40.64
69715;HTU21D;56981;53.532;49.398;2023-01-19T11:13:35;-3.47;40.48
69715;HTU21D;56981;53.532;49.398;2023-01-19T11:16:12;-3.49;40.63
69715;HTU21D;56981;53.532;49.398;2023-01-19T11:18:41;-3.48;40.33
69715;HTU21D;56981;53.532;49.398;2023-01-19T11:21:13;-3.45;41.97
69715;HTU21D;56981;53.532;49.398;2023-01-19T11:23:54;-3.46;42.90
69715;HTU21D;56981;53.532;49.398;2023-01-19T11:26:29;-3.43;42.15
69715;HTU21D;56981;53.532;49.398;2023-01-19T11:28:58;-3.51;42.03
69715;HTU21D;56981;53.532;49.398;2023-01-19T11:39:00;-3.66;40.83
69715;HTU21D;56981;53.532;49.398;2023-01-19T11:41:34;-3.71;41.13
69715;HTU21D;56981;53.532;49.398;2023-01-19T11:44:22;-3.72;41.94
69715;HTU21D;56981;53.532;49.398;2023-01-19T11:46:53;-3.74;40.01
69715;HTU21D;56981;53.532;49.398;2023-01-19T11:49:37;-3.71;40.94
69715;HTU21D;56981;53.532;49.398;2023-01-19T11:54:52;-3.77;40.00
69715;HTU21D;56981;53.532;49.398;2023-01-19T11:57:20;-3.76;40.74
69715;HTU21D;56981;53.532;49.398;2023-01-19T11:59:47;-3.77;41.32
69715;HTU21D;56981;53.532;49.398;2023-01-19T12:02:27;-3.77;43.90
69715;HTU21D;56981;53.532;49.398;2023-01-19T12:04:58;-3.80;40.55
69715;HTU21D;56981;53.532;49.398;2023-01-19T12:07:29;-3.83;40.52
69715;HTU21D;56981;53.532;49.398;2023-01-19T12:10:11;-3.79;40.27
69715;HTU21D;56981;53.532;49.398;2023-01-19T12:12:38;-3.84;41.12
69715;HTU21D;56981;53.532;49.398;2023-01-19T12:15:51;-3.87;41.33
69715;HTU21D;56981;53.532;49.398;2023-01-19T12:17:55;-3.96;42.61
69715;HTU21D;56981;53.532;49.398;2023-01-19T12:20:42;-4.01;42.55
69715;HTU21D;56981;53.532;49.398;2023-01-19T12:28:46;-4.13;43.54
69715;HTU21D;56981;53.532;49.398;2023-01-19T12:31:18;-4.21;42.77
69715;HTU21D;56981;53.532;49.398;2023-01-19T12:33:45;-4.24;43.39
69715;HTU21D;56981;53.532;49.398;2023-01-19T12:39:00;-4.32;44.31
69715;HTU21D;56981;53.532;49.398;2023-01-19T12:46:49;-4.48;46.28
69715;HTU21D;56981;53.532;49.398;2023-01-19T12:49:26;-4.51;46.32
69715;HTU21D;56981;53.532;49.398;2023-01-19T12:57:48;-4.66;44.13
69715;HTU21D;56981;53.532;49.398;2023-01-19T13:02:53;-4.71;42.74
69715;HTU21D;56981;53.532;49.398;2023-01-19T13:13:29;-4.88;44.65
69715;HTU21D;56981;53.532;49.398;2023-01-19T13:16:49;-4.89;42.60
69715;HTU21D;56981;53.532;49.398;2023-01-19T13:18:57;-4.93;42.29
69715;HTU21D;56981;53.532;49.398;2023-01-19T13:21:31;-4.91;41.97
69715;HTU21D;56981;53.532;49.398;2023-01-19T13:24:02;-4.91;42.92
69715;HTU21D;56981;53.532;49.398;2023-01-19T13:26:32;-4.94;41.36
69715;HTU21D;56981;53.532;49.398;2023-01-19T13:29:13;-4.94;41.81
69715;HTU21D;56981;53.532;49.398;2023-01-19T13:31:42;-5.00;43.10
69715;HTU21D;56981;53.532;49.398;2023-01-19T13:34:22;-5.05;43.27
69715;HTU21D;56981;53.532;49.398;2023-01-19T13:36:54;-5.16;44.16
69715;HTU21D;56981;53.532;49.398;2023-01-19T13:39:27;-5.15;43.34
69715;HTU21D;56981;53.532;49.398;2023-01-19T13:42:01;-5.17;41.38
69715;HTU21D;56981;53.532;49.398;2023-01-19T13:44:34;-5.18;40.94
69715;HTU21D;56981;53.532;49.398;2023-01-19T13:47:07;-5.14;41.04
69715;HTU21D;56981;53.532;49.398;2023-01-19T13:49:41;-5.12;41.07
69715;HTU21D;56981;53.532;49.398;2023-01-19T13:52:24;-5.07;40.31
69715;HTU21D;56981;53.532;49.398;2023-01-19T13:54:55;-5.09;42.91
69715;HTU21D;56981;53.532;49.398;2023-01-19T13:57:32;-5.13;42.40
69715;HTU21D;56981;53.532;49.398;2023-01-19T14:02:59;-5.23;40.56
69715;HTU21D;56981;53.532;49.398;2023-01-19T14:05:36;-5.20;40.84
69715;HTU21D;56981;53.532;49.398;2023-01-19T14:08:12;-5.25;41.52
69715;HTU21D;56981;53.532;49.398;2023-01-19T14:16:14;-5.34;39.75
69715;HTU21D;56981;53.532;49.398;2023-01-19T14:18:40;-5.39;39.65
69715;HTU21D;56981;53.532;49.398;2023-01-19T14:21:12;-5.43;41.38
69715;HTU21D;56981;53.532;49.398;2023-01-19T14:24:13;-5.49;42.44
69715;HTU21D;56981;53.532;49.398;2023-01-19T14:26:43;-5.53;40.75
69715;HTU21D;56981;53.532;49.398;2023-01-19T14:29:34;-5.58;42.98
69715;HTU21D;56981;53.532;49.398;2023-01-19T14:32:11;-5.62;43.24
69715;HTU21D;56981;53.532;49.398;2023-01-19T14:37:34;-5.68;42.04
69715;HTU21D;56981;53.532;49.398;2023-01-19T14:40:35;-5.70;42.18
69715;HTU21D;56981;53.532;49.398;2023-01-19T14:43:10;-5.74;42.45
69715;HTU21D;56981;53.532;49.398;2023-01-19T14:45:38;-5.79;44.22
69715;HTU21D;56981;53.532;49.398;2023-01-19T14:50:40;-5.83;41.66
69715;HTU21D;56981;53.532;49.398;2023-01-19T14:53:15;-5.85;45.10
69715;HTU21D;56981;53.532;49.398;2023-01-19T14:58:18;-5.88;43.04
69715;HTU21D;56981;53.532;49.398;2023-01-19T15:00:46;-5.88;41.87
69715;HTU21D;56981;53.532;49.398;2023-01-19T15:03:13;-5.89;41.46
69715;HTU21D;56981;53.532;49.398;2023-01-19T15:05:41;-5.88;40.81
69715;HTU21D;56981;53.532;49.398;2023-01-19T15:08:14;-5.88;40.78
69715;HTU21D;56981;53.532;49.398;2023-01-19T15:10:41;-5.88;41.52
69715;HTU21D;56981;53.532;49.398;2023-01-19T15:13:18;-5.87;40.68
69715;HTU21D;56981;53.532;49.398;2023-01-19T15:15:45;-5.87;41.78
69715;HTU21D;56981;53.532;49.398;2023-01-19T15:18:16;-5.86;41.89
69715;HTU21D;56981;53.532;49.398;2023-01-19T15:20:44;-5.86;41.80
69715;HTU21D;56981;53.532;49.398;2023-01-19T15:23:13;-5.86;42.42
69715;HTU21D;56981;53.532;49.398;2023-01-19T15:25:39;-5.86;43.22
69715;HTU21D;56981;53.532;49.398;2023-01-19T15:28:12;-5.86;43.65
69715;HTU21D;56981;53.532;49.398;2023-01-19T15:30:39;-5.88;43.23
69715;HTU21D;56981;53.532;49.398;2023-01-19T15:33:05;-5.88;44.29
69715;HTU21D;56981;53.532;49.398;2023-01-19T15:35:31;-5.89;43.74
69715;HTU21D;56981;53.532;49.398;2023-01-19T15:37:57;-5.91;45.83
69715;HTU21D;56981;53.532;49.398;2023-01-19T15:40:23;-5.93;43.90
69715;HTU21D;56981;53.532;49.398;2023-01-19T15:42:49;-5.96;44.06
69715;HTU21D;56981;53.532;49.398;2023-01-19T15:48:15;-6.00;44.93
69715;HTU21D;56981;53.532;49.398;2023-01-19T15:50:45;-6.03;45.29
69715;HTU21D;56981;53.532;49.398;2023-01-19T15:53:19;-6.04;45.56
69715;HTU21D;56981;53.532;49.398;2023-01-19T15:55:50;-6.02;45.25
69715;HTU21D;56981;53.532;49.398;2023-01-19T15:58:17;-6.03;46.13
69715;HTU21D;56981;53.532;49.398;2023-01-19T16:00:52;-6.04;46.33
69715;HTU21D;56981;53.532;49.398;2023-01-19T16:03:18;-6.06;47.47
69715;HTU21D;56981;53.532;49.398;2023-01-19T16:05:44;-6.07;47.44
69715;HTU21D;56981;53.532;49.398;2023-01-19T16:08:11;-6.09;48.43
69715;HTU21D;56981;53.532;49.398;2023-01-19T16:10:37;-6.11;49.04
69715;HTU21D;56981;53.532;49.398;2023-01-19T16:13:03;-6.11;49.16
69715;HTU21D;56981;53.532;49.398;2023-01-19T16:15:29;-6.15;50.79
69715;HTU21D;56981;53.532;49.398;2023-01-19T16:17:55;-6.19;49.85
69715;HTU21D;56981;53.532;49.398;2023-01-19T16:20:21;-6.22;50.84
69715;HTU21D;56981;53.532;49.398;2023-01-19T16:22:47;-6.23;50.79
69715;HTU21D;56981;53.532;49.398;2023-01-19T16:25:13;-6.27;50.72
69715;HTU21D;56981;53.532;49.398;2023-01-19T16:27:39;-6.31;51.75
69715;HTU21D;56981;53.532;49.398;2023-01-19T16:30:06;-6.37;52.20
69715;HTU21D;56981;53.532;49.398;2023-01-19T16:32:32;-6.38;52.17
69715;HTU21D;56981;53.532;49.398;2023-01-19T16:34:59;-6.41;52.62
69715;HTU21D;56981;53.532;49.398;2023-01-19T16:37:26;-6.45;53.52
69715;HTU21D;56981;53.532;49.398;2023-01-19T16:39:52;-6.47;52.91